YR8PZ LRCL-LROP
Flight info
| Callsign | YR8PZ |
|---|---|
| Flight time | N/A |
| Altitude | 23000 |
| Route | IRLOX DCT BIVBU DCT TOSVI |
| Aircraft | P180/L-SBDFGM3RWXY/LB1 |
Departure
| Time | 2026-05-09 00:26 |
|---|---|
| Airport | Avram Iancu Cluj International Airport (LRCL) |
Arrival
| Time | N/A |
|---|---|
| Airport | Bucharest Henri Coandă International Airport (LROP) |
| Time | Latitude | Longitude | Altitude | Speed | Heading |
|---|---|---|---|---|---|
| 2026-05-09 00:11 | 46.78338 | 23.68626 | 1037 ft | 0 kts | 167° |
| 2026-05-09 00:20 | 46.78336 | 23.68627 | 1037 ft | 0 kts | 167° |
| 2026-05-09 00:20 | 46.78331 | 23.68629 | 1037 ft | 2 kts | 167° |
| 2026-05-09 00:21 | 46.78308 | 23.68645 | 1037 ft | 4 kts | 103° |
| 2026-05-09 00:21 | 46.78336 | 23.68679 | 1037 ft | 7 kts | 15° |
| 2026-05-09 00:21 | 46.78392 | 23.68665 | 1037 ft | 9 kts | 346° |
| 2026-05-09 00:21 | 46.78464 | 23.68645 | 1037 ft | 12 kts | 350° |
| 2026-05-09 00:22 | 46.78528 | 23.68682 | 1037 ft | 13 kts | 83° |
| 2026-05-09 00:22 | 46.78545 | 23.68821 | 1037 ft | 15 kts | 79° |
| 2026-05-09 00:22 | 46.78567 | 23.68981 | 1037 ft | 17 kts | 79° |
| 2026-05-09 00:22 | 46.78592 | 23.69160 | 1037 ft | 19 kts | 78° |
| 2026-05-09 00:23 | 46.78606 | 23.69275 | 1037 ft | 10 kts | 75° |
| 2026-05-09 00:23 | 46.78671 | 23.69278 | 1037 ft | 11 kts | 339° |
| 2026-05-09 00:23 | 46.78744 | 23.69242 | 1037 ft | 8 kts | 342° |
| 2026-05-09 00:23 | 46.78808 | 23.69211 | 1037 ft | 11 kts | 342° |
| 2026-05-09 00:24 | 46.78886 | 23.69175 | 1037 ft | 13 kts | 345° |
| 2026-05-09 00:24 | 46.78940 | 23.69265 | 1037 ft | 14 kts | 73° |
| 2026-05-09 00:24 | 46.78972 | 23.69414 | 1037 ft | 16 kts | 71° |
| 2026-05-09 00:24 | 46.78994 | 23.69524 | 1037 ft | 17 kts | 87° |
| 2026-05-09 00:25 | 46.79014 | 23.69584 | 1037 ft | 7 kts | 252° |
| 2026-05-09 00:25 | 46.79006 | 23.69561 | 1037 ft | 0 kts | 251° |
| 2026-05-09 00:25 | 46.78974 | 23.69420 | 1037 ft | 47 kts | 251° |
| 2026-05-09 00:26 | 46.78809 | 23.68691 | 1037 ft | 100 kts | 251° |
| 2026-05-09 00:26 | 46.78561 | 23.67597 | 1142 ft | 117 kts | 253° |
| 2026-05-09 00:26 | 46.78349 | 23.66504 | 1673 ft | 111 kts | 257° |
| 2026-05-09 00:26 | 46.78145 | 23.65417 | 2110 ft | 112 kts | 252° |
| 2026-05-09 00:27 | 46.77892 | 23.64308 | 2602 ft | 118 kts | 254° |
| 2026-05-09 00:27 | 46.77649 | 23.63197 | 3195 ft | 118 kts | 254° |
| 2026-05-09 00:27 | 46.77365 | 23.61939 | 3468 ft | 143 kts | 252° |
| 2026-05-09 00:27 | 46.76685 | 23.60748 | 3718 ft | 169 kts | 213° |
| 2026-05-09 00:28 | 46.75553 | 23.60045 | 3908 ft | 191 kts | 189° |
| 2026-05-09 00:28 | 46.74172 | 23.60278 | 3994 ft | 212 kts | 158° |
| 2026-05-09 00:28 | 46.72833 | 23.61362 | 4046 ft | 227 kts | 148° |
| 2026-05-09 00:28 | 46.71430 | 23.62574 | 4088 ft | 244 kts | 149° |
| 2026-05-09 00:29 | 46.69907 | 23.63817 | 4119 ft | 256 kts | 150° |
| 2026-05-09 00:29 | 46.68345 | 23.65078 | 4307 ft | 257 kts | 150° |
| 2026-05-09 00:29 | 46.66817 | 23.66316 | 4884 ft | 240 kts | 150° |
| 2026-05-09 00:29 | 46.65391 | 23.67493 | 5415 ft | 236 kts | 150° |
| 2026-05-09 00:30 | 46.63952 | 23.68657 | 5790 ft | 237 kts | 150° |
| 2026-05-09 00:30 | 46.62510 | 23.69824 | 6178 ft | 238 kts | 150° |
| 2026-05-09 00:30 | 46.61078 | 23.70992 | 6534 ft | 240 kts | 150° |
| 2026-05-09 00:30 | 46.59617 | 23.72177 | 6848 ft | 242 kts | 150° |
| 2026-05-09 00:31 | 46.58174 | 23.73345 | 7452 ft | 232 kts | 150° |
| 2026-05-09 00:31 | 46.56761 | 23.74498 | 7862 ft | 234 kts | 150° |
| 2026-05-09 00:31 | 46.55334 | 23.75648 | 8277 ft | 235 kts | 150° |
| 2026-05-09 00:31 | 46.53896 | 23.76818 | 9240 ft | 233 kts | 150° |
| 2026-05-09 00:32 | 46.52465 | 23.77985 | 9989 ft | 240 kts | 151° |
| 2026-05-09 00:32 | 46.50995 | 23.79163 | 10962 ft | 241 kts | 151° |
| 2026-05-09 00:32 | 46.49521 | 23.80360 | 12012 ft | 245 kts | 151° |
| 2026-05-09 00:32 | 46.48017 | 23.81575 | 13040 ft | 249 kts | 152° |
| 2026-05-09 00:33 | 46.46463 | 23.82828 | 13808 ft | 264 kts | 152° |
| 2026-05-09 00:33 | 46.44836 | 23.84137 | 14606 ft | 269 kts | 152° |
| 2026-05-09 00:33 | 46.43195 | 23.85464 | 15456 ft | 272 kts | 152° |
| 2026-05-09 00:33 | 46.41531 | 23.86809 | 16271 ft | 275 kts | 152° |
| 2026-05-09 00:34 | 46.39847 | 23.88159 | 17072 ft | 279 kts | 152° |
| 2026-05-09 00:34 | 46.38141 | 23.89533 | 17863 ft | 282 kts | 152° |
| 2026-05-09 00:34 | 46.36412 | 23.90923 | 18596 ft | 286 kts | 152° |
| 2026-05-09 00:34 | 46.34668 | 23.92324 | 19288 ft | 287 kts | 152° |
| 2026-05-09 00:35 | 46.32915 | 23.93735 | 20012 ft | 289 kts | 152° |
| 2026-05-09 00:35 | 46.31148 | 23.95149 | 20714 ft | 291 kts | 153° |
| 2026-05-09 00:35 | 46.29373 | 23.96573 | 21310 ft | 293 kts | 153° |
| 2026-05-09 00:35 | 46.27566 | 23.98012 | 21890 ft | 297 kts | 153° |
| 2026-05-09 00:36 | 46.25779 | 23.99453 | 22723 ft | 299 kts | 153° |
| 2026-05-09 00:36 | 46.23918 | 24.00943 | 23045 ft | 318 kts | 153° |
| 2026-05-09 00:36 | 46.21903 | 24.02541 | 23052 ft | 342 kts | 153° |
| 2026-05-09 00:36 | 46.19751 | 24.04255 | 23057 ft | 362 kts | 153° |
| 2026-05-09 00:37 | 46.17502 | 24.06065 | 23062 ft | 378 kts | 153° |
| 2026-05-09 00:37 | 46.15166 | 24.07929 | 23055 ft | 389 kts | 153° |
| 2026-05-09 00:37 | 46.12810 | 24.09782 | 23051 ft | 383 kts | 153° |
| 2026-05-09 00:37 | 46.10491 | 24.11625 | 23053 ft | 375 kts | 152° |
| 2026-05-09 00:38 | 46.08244 | 24.13446 | 23054 ft | 370 kts | 153° |
| 2026-05-09 00:38 | 46.05998 | 24.15220 | 23050 ft | 363 kts | 153° |
| 2026-05-09 00:38 | 46.03732 | 24.17004 | 23052 ft | 378 kts | 153° |
| 2026-05-09 00:38 | 46.01417 | 24.18818 | 23053 ft | 374 kts | 153° |
| 2026-05-09 00:39 | 45.99152 | 24.20618 | 23054 ft | 368 kts | 152° |
| 2026-05-09 00:39 | 45.96931 | 24.22404 | 23054 ft | 364 kts | 153° |
| 2026-05-09 00:39 | 45.94727 | 24.24147 | 23050 ft | 360 kts | 153° |
| 2026-05-09 00:39 | 45.92536 | 24.25849 | 23049 ft | 356 kts | 153° |
| 2026-05-09 00:40 | 45.90363 | 24.27562 | 23047 ft | 354 kts | 153° |